Terminal Aerodrome Forecast
Issued by NWS Topeka, KS

Home | Current Version | Previous Version | Text Only | Print | Product List | Glossary Off
Versions: 1 2 3 4 5 6 7 8 9 10 11 12 13 14 15 16 17 18

000
FTUS43 KTOP 250900 AAD
TAFTOP
TAF AMD
KTOP 250953Z 2510/2606 VRB04KT P6SM VCTS SCT100CB
      TEMPO 2510/2511 06010KT 2SM TSRA BR BKN060 OVC090CB
     FM251200 15008KT P6SM FEW060 BKN100=

USA.gov is the U.S. government's official web portal to all federal, state and local government web resources and services.